Time;durP1;ratioP1;P1;durP2;ratioP2;P2;SDS_P1;SDS_P2;PMS_P1;PMS_P2;Temp;Humidity;BMP_temperature;BMP_pressure;BME280_temperature;BME280_humidity;BME280_pressure;Samples;Min_cycle;Max_cycle;Signal;HPM_P1;HPM_P2
2021/06/12 00:00:53;;;;;;;7.43;5.60;;;;;;;;;;4948994;29;20031;-72
2021/06/12 00:03:19;;;;;;;8.30;5.85;;;;;;;;;;4945215;29;20036;-79
2021/06/12 00:05:45;;;;;;;7.60;5.80;;;;;;;;;;4944149;29;20141;-77
2021/06/12 00:08:11;;;;;;;9.90;5.97;;;;;;;;;;4949411;29;20034;-70
2021/06/12 00:10:40;;;;;;;11.55;6.50;;;;;;;;;;4946211;29;20050;-77
2021/06/12 00:13:09;;;;;;;8.70;6.20;;;;;;;;;;4939770;29;20038;-80
2021/06/12 00:15:37;;;;;;;10.25;6.85;;;;;;;;;;4931928;29;20489;-79
2021/06/12 00:18:04;;;;;;;11.57;6.65;;;;;;;;;;4944957;29;20052;-74
2021/06/12 00:20:35;;;;;;;11.48;6.13;;;;;;;;;;4912685;29;20103;-69
2021/06/12 00:23:01;;;;;;;10.20;5.75;;;;;;;;;;4953435;29;20106;-62
2021/06/12 00:25:29;;;;;;;9.30;5.95;;;;;;;;;;4950237;29;20038;-75
2021/06/12 00:27:57;;;;;;;9.57;6.88;;;;;;;;;;4931060;29;20028;-74
2021/06/12 00:30:25;;;;;;;9.48;6.90;;;;;;;;;;4956585;29;20024;-78
2021/06/12 00:32:52;;;;;;;7.97;6.45;;;;;;;;;;4946195;29;20083;-77
2021/06/12 00:35:19;;;;;;;9.38;7.60;;;;;;;;;;4945851;29;20027;-74
2021/06/12 00:37:45;;;;;;;9.40;6.35;;;;;;;;;;4942370;29;20032;-64
2021/06/12 00:40:12;;;;;;;7.88;5.60;;;;;;;;;;4941232;29;20027;-78
2021/06/12 00:42:39;;;;;;;7.38;5.22;;;;;;;;;;4946356;29;20024;-77
2021/06/12 00:45:09;;;;;;;6.80;5.03;;;;;;;;;;4956563;29;20039;-77
2021/06/12 00:47:36;;;;;;;9.30;5.05;;;;;;;;;;4945215;29;20038;-78
2021/06/12 00:50:04;;;;;;;7.05;5.20;;;;;;;;;;4926998;29;20032;-77
2021/06/12 00:52:30;;;;;;;7.97;5.20;;;;;;;;;;4941363;29;20048;-74
2021/06/12 00:54:56;;;;;;;7.85;4.97;;;;;;;;;;4945853;29;20020;-77
2021/06/12 00:57:22;;;;;;;5.75;4.95;;;;;;;;;;4942041;29;20044;-72
2021/06/12 00:59:48;;;;;;;5.63;5.13;;;;;;;;;;4940175;29;20039;-77
2021/06/12 01:02:14;;;;;;;6.53;5.15;;;;;;;;;;4937719;29;20137;-63
2021/06/12 01:04:41;;;;;;;6.78;4.90;;;;;;;;;;4922085;29;20038;-62
2021/06/12 01:07:07;;;;;;;7.72;5.15;;;;;;;;;;4914971;29;20040;-71
2021/06/12 01:09:33;;;;;;;7.43;5.05;;;;;;;;;;4912805;29;20029;-72
2021/06/12 01:12:06;;;;;;;7.78;4.70;;;;;;;;;;4916886;29;20035;-77
2021/06/12 01:14:34;;;;;;;7.50;4.95;;;;;;;;;;4911313;29;20017;-62
2021/06/12 01:17:03;;;;;;;6.65;4.78;;;;;;;;;;4934328;29;20529;-72
2021/06/12 01:19:45;;;;;;;7.15;4.82;;;;;;;;;;4911857;29;20036;-66
2021/06/12 01:22:25;;;;;;;4.85;4.35;;;;;;;;;;4916936;29;20033;-60
2021/06/12 01:24:51;;;;;;;6.65;4.65;;;;;;;;;;4912262;29;20032;-78
2021/06/12 01:27:20;;;;;;;7.22;4.55;;;;;;;;;;4921677;29;20034;-60
2021/06/12 01:30:04;;;;;;;7.05;4.90;;;;;;;;;;4938733;29;20028;-78
2021/06/12 01:32:32;;;;;;;7.20;4.43;;;;;;;;;;4938069;29;20037;-62
2021/06/12 01:34:59;;;;;;;6.38;4.60;;;;;;;;;;4934721;29;20065;-77
2021/06/12 01:37:26;;;;;;;8.93;5.15;;;;;;;;;;4939192;29;20106;-60
2021/06/12 01:39:52;;;;;;;5.97;4.57;;;;;;;;;;4917692;29;20092;-72
2021/06/12 01:42:19;;;;;;;8.30;4.45;;;;;;;;;;4916522;29;20029;-60
2021/06/12 01:44:47;;;;;;;5.95;4.47;;;;;;;;;;4917223;29;20033;-64
2021/06/12 01:47:13;;;;;;;7.68;4.22;;;;;;;;;;4929381;29;20036;-60
2021/06/12 01:49:41;;;;;;;8.90;4.20;;;;;;;;;;4936318;29;20482;-77
2021/06/12 01:52:07;;;;;;;5.10;4.03;;;;;;;;;;4945116;29;20481;-72
2021/06/12 01:54:34;;;;;;;6.90;4.22;;;;;;;;;;4942773;29;20056;-73
2021/06/12 01:57:00;;;;;;;6.90;4.00;;;;;;;;;;4928551;29;20043;-69
2021/06/12 01:59:29;;;;;;;5.45;3.85;;;;;;;;;;4932026;29;20499;-62
2021/06/12 02:01:59;;;;;;;4.45;3.70;;;;;;;;;;4932058;29;20521;-77
2021/06/12 02:04:26;;;;;;;6.43;4.60;;;;;;;;;;4933612;29;20028;-71
2021/06/12 02:06:52;;;;;;;4.70;3.90;;;;;;;;;;4939095;29;20052;-76
2021/06/12 02:09:19;;;;;;;4.70;4.15;;;;;;;;;;4936963;29;20044;-73
2021/06/12 02:11:45;;;;;;;6.15;3.90;;;;;;;;;;4935788;29;20410;-62
2021/06/12 02:14:31;;;;;;;5.30;4.30;;;;;;;;;;4931859;29;20044;-78
2021/06/12 02:17:13;;;;;;;5.45;3.85;;;;;;;;;;4914052;29;20088;-60
2021/06/12 02:19:40;;;;;;;7.82;4.50;;;;;;;;;;4932758;29;20024;-71
2021/06/12 02:22:06;;;;;;;5.57;4.18;;;;;;;;;;4930575;29;20028;-66
2021/06/12 02:24:33;;;;;;;5.82;4.00;;;;;;;;;;4920810;29;20031;-71
2021/06/12 02:26:59;;;;;;;6.57;4.00;;;;;;;;;;4923209;29;20051;-65
2021/06/12 02:29:35;;;;;;;9.30;4.38;;;;;;;;;;4936162;29;20051;-77
2021/06/12 02:32:12;;;;;;;7.30;4.10;;;;;;;;;;4930988;29;20110;-75
2021/06/12 02:34:38;;;;;;;5.00;4.22;;;;;;;;;;4950852;29;20067;-80
2021/06/12 02:37:06;;;;;;;5.65;4.10;;;;;;;;;;4926576;29;20061;-78
2021/06/12 02:39:32;;;;;;;5.25;4.13;;;;;;;;;;4941183;29;20075;-78
2021/06/12 02:41:59;;;;;;;9.48;4.20;;;;;;;;;;4957213;29;20051;-66
2021/06/12 02:44:27;;;;;;;6.30;3.85;;;;;;;;;;4953497;29;20063;-61
2021/06/12 02:46:56;;;;;;;6.38;4.30;;;;;;;;;;4935043;29;20153;-76
2021/06/12 02:49:25;;;;;;;5.97;3.95;;;;;;;;;;4935028;29;20024;-71
2021/06/12 02:52:02;;;;;;;5.97;3.92;;;;;;;;;;4935605;29;20410;-60
2021/06/12 02:54:28;;;;;;;6.70;4.05;;;;;;;;;;4937155;29;20016;-73
2021/06/12 02:56:56;;;;;;;6.82;4.18;;;;;;;;;;4941292;29;20083;-77
2021/06/12 02:59:23;;;;;;;5.18;3.92;;;;;;;;;;4935109;29;20016;-70
2021/06/12 03:01:50;;;;;;;6.03;4.10;;;;;;;;;;4937420;29;20080;-77
2021/06/12 03:04:16;;;;;;;5.72;4.10;;;;;;;;;;4933210;29;20116;-60
2021/06/12 03:06:54;;;;;;;5.68;4.20;;;;;;;;;;4938053;29;20035;-77
2021/06/12 03:09:23;;;;;;;5.78;4.10;;;;;;;;;;4901510;29;20036;-67
2021/06/12 03:11:50;;;;;;;6.38;3.80;;;;;;;;;;4950871;29;20024;-60
2021/06/12 03:14:17;;;;;;;8.02;3.95;;;;;;;;;;4928650;29;20025;-60
2021/06/12 03:16:44;;;;;;;8.02;4.15;;;;;;;;;;4927503;29;20063;-76
2021/06/12 03:19:12;;;;;;;6.80;4.10;;;;;;;;;;4933735;29;20500;-77
2021/06/12 03:21:38;;;;;;;7.38;4.07;;;;;;;;;;4931828;29;20025;-70
2021/06/12 03:24:05;;;;;;;8.45;4.28;;;;;;;;;;4921812;29;20090;-74
2021/06/12 03:26:32;;;;;;;5.35;4.13;;;;;;;;;;4917930;29;20144;-73
2021/06/12 03:28:58;;;;;;;6.60;4.10;;;;;;;;;;4934840;29;20053;-61
2021/06/12 03:31:24;;;;;;;5.25;4.00;;;;;;;;;;4932043;29;20024;-69
2021/06/12 03:33:50;;;;;;;5.68;4.07;;;;;;;;;;4935290;29;20177;-74
2021/06/12 03:36:18;;;;;;;7.85;3.97;;;;;;;;;;4931942;29;20502;-62
2021/06/12 03:38:44;;;;;;;7.97;4.00;;;;;;;;;;4935609;29;20064;-76
2021/06/12 03:41:10;;;;;;;7.63;3.78;;;;;;;;;;4930653;29;20038;-76
2021/06/12 03:43:37;;;;;;;7.28;4.13;;;;;;;;;;4931708;29;20028;-60
2021/06/12 03:46:05;;;;;;;5.82;4.00;;;;;;;;;;4927406;29;20137;-66
2021/06/12 03:48:31;;;;;;;7.65;3.85;;;;;;;;;;4912932;29;20027;-75
2021/06/12 03:50:58;;;;;;;6.72;4.22;;;;;;;;;;4921767;29;20052;-76
2021/06/12 03:53:30;;;;;;;6.53;4.18;;;;;;;;;;4945678;29;20503;-78
2021/06/12 03:55:57;;;;;;;7.50;3.95;;;;;;;;;;4930384;29;20020;-60
2021/06/12 03:58:23;;;;;;;8.32;4.63;;;;;;;;;;4915370;29;20040;-76
2021/06/12 04:00:50;;;;;;;18.92;5.30;;;;;;;;;;4931398;29;20024;-66
2021/06/12 04:03:16;;;;;;;9.00;4.60;;;;;;;;;;4930349;29;20035;-60
2021/06/12 04:05:42;;;;;;;8.68;4.57;;;;;;;;;;4929163;29;20059;-77
2021/06/12 04:08:08;;;;;;;10.82;4.47;;;;;;;;;;4923131;29;20028;-64
2021/06/12 04:10:34;;;;;;;8.55;4.50;;;;;;;;;;4926817;29;20059;-76
2021/06/12 04:13:08;;;;;;;7.90;4.63;;;;;;;;;;4934474;29;20020;-77
2021/06/12 04:15:37;;;;;;;8.50;4.60;;;;;;;;;;4911023;29;20032;-78
2021/06/12 04:18:12;;;;;;;7.50;4.30;;;;;;;;;;4930633;29;20048;-77
2021/06/12 04:20:39;;;;;;;6.20;3.72;;;;;;;;;;4908444;29;20056;-66
2021/06/12 04:23:06;;;;;;;6.95;4.20;;;;;;;;;;4910931;29;20084;-60
2021/06/12 04:25:32;;;;;;;8.30;4.25;;;;;;;;;;4918571;29;20032;-78
2021/06/12 04:27:58;;;;;;;6.63;4.38;;;;;;;;;;4916211;29;20024;-77
2021/06/12 04:30:25;;;;;;;7.18;4.53;;;;;;;;;;4916446;29;20032;-75
2021/06/12 04:32:51;;;;;;;9.90;4.53;;;;;;;;;;4918758;29;20074;-78
2021/06/12 04:35:17;;;;;;;7.57;4.63;;;;;;;;;;4921529;29;20039;-61
2021/06/12 04:37:44;;;;;;;7.88;4.47;;;;;;;;;;4916977;29;20037;-60
2021/06/12 04:40:11;;;;;;;10.10;4.55;;;;;;;;;;4919124;29;20072;-77
2021/06/12 04:42:37;;;;;;;9.88;4.68;;;;;;;;;;4911194;29;20039;-76
2021/06/12 04:45:08;;;;;;;6.60;4.50;;;;;;;;;;4920043;29;20024;-77
2021/06/12 04:47:37;;;;;;;;;;;;;;;;;;4921134;29;20041;-76
2021/06/12 04:50:05;;;;;;;9.35;4.82;;;;;;;;;;4907162;29;20405;-63
2021/06/12 04:52:31;;;;;;;6.38;4.68;;;;;;;;;;4915716;29;20373;-76
2021/06/12 04:54:57;;;;;;;8.15;4.60;;;;;;;;;;4907664;29;20062;-77
2021/06/12 04:57:23;;;;;;;10.30;5.28;;;;;;;;;;4906000;29;20047;-74
2021/06/12 04:59:49;;;;;;;8.40;5.32;;;;;;;;;;4913087;29;20016;-60
2021/06/12 05:02:17;;;;;;;10.50;5.07;;;;;;;;;;4920483;29;20044;-67
2021/06/12 05:04:43;;;;;;;7.72;5.07;;;;;;;;;;4895649;29;20528;-75
2021/06/12 05:07:09;;;;;;;6.88;4.70;;;;;;;;;;4908084;29;20416;-78
2021/06/12 05:09:35;;;;;;;7.75;5.10;;;;;;;;;;4914816;29;20388;-79
2021/06/12 05:12:02;;;;;;;10.65;4.95;;;;;;;;;;4908288;29;20025;-81
2021/06/12 05:14:28;;;;;;;13.50;5.78;;;;;;;;;;4901068;29;20016;-82
2021/06/12 05:16:54;;;;;;;17.77;6.57;;;;;;;;;;4905647;29;20045;-81
2021/06/12 05:19:20;;;;;;;15.43;6.70;;;;;;;;;;4898804;29;20032;-61
2021/06/12 05:21:46;;;;;;;8.18;4.97;;;;;;;;;;4902414;29;20025;-77
2021/06/12 05:24:12;;;;;;;8.43;5.15;;;;;;;;;;4903166;29;20531;-78
2021/06/12 05:26:42;;;;;;;9.45;4.97;;;;;;;;;;4910047;29;20043;-60
2021/06/12 05:29:08;;;;;;;9.00;5.10;;;;;;;;;;4917889;29;20052;-78
2021/06/12 05:31:34;;;;;;;8.80;4.53;;;;;;;;;;4909557;29;20047;-78
2021/06/12 05:34:00;;;;;;;7.65;4.88;;;;;;;;;;4912342;29;20031;-78
2021/06/12 05:36:26;;;;;;;8.60;4.70;;;;;;;;;;4910106;29;20396;-70
2021/06/12 05:38:52;;;;;;;6.75;4.50;;;;;;;;;;4905596;29;20055;-81
2021/06/12 05:41:19;;;;;;;8.35;4.45;;;;;;;;;;4909798;29;21632;-67
2021/06/12 05:43:45;;;;;;;15.98;4.47;;;;;;;;;;4904488;29;20513;-65
2021/06/12 05:46:11;;;;;;;5.53;4.20;;;;;;;;;;4891498;29;20050;-66
2021/06/12 05:48:37;;;;;;;9.27;4.50;;;;;;;;;;4903730;29;20035;-61
2021/06/12 05:51:03;;;;;;;8.23;4.60;;;;;;;;;;4911696;29;20478;-84
2021/06/12 05:53:29;;;;;;;8.55;4.82;;;;;;;;;;4906310;29;20025;-63
2021/06/12 05:55:55;;;;;;;7.38;4.80;;;;;;;;;;4912644;29;20056;-64
2021/06/12 05:58:21;;;;;;;9.52;4.82;;;;;;;;;;4903937;29;20024;-83
2021/06/12 06:00:47;;;;;;;9.88;4.75;;;;;;;;;;4907565;29;20553;-85
2021/06/12 06:03:13;;;;;;;9.60;5.32;;;;;;;;;;4906678;29;20062;-83
2021/06/12 06:05:40;;;;;;;6.40;4.70;;;;;;;;;;4905168;29;20025;-81
2021/06/12 06:08:06;;;;;;;9.23;4.82;;;;;;;;;;4902200;29;20041;-85
2021/06/12 06:10:32;;;;;;;8.32;5.00;;;;;;;;;;4905358;29;20037;-74
2021/06/12 06:13:02;;;;;;;8.65;4.30;;;;;;;;;;4906598;29;20040;-70
2021/06/12 06:15:28;;;;;;;5.65;4.20;;;;;;;;;;4902629;29;20475;-63
2021/06/12 06:17:54;;;;;;;9.18;4.32;;;;;;;;;;4904954;29;20053;-77
2021/06/12 06:20:20;;;;;;;4.90;4.00;;;;;;;;;;4891627;29;20028;-82
2021/06/12 06:22:46;;;;;;;6.38;4.22;;;;;;;;;;4901364;29;20036;-79
2021/06/12 06:25:14;;;;;;;7.93;4.90;;;;;;;;;;4914600;29;20032;-68
2021/06/12 06:27:40;;;;;;;9.02;4.38;;;;;;;;;;4906058;29;20042;-67
2021/06/12 06:30:07;;;;;;;11.40;4.93;;;;;;;;;;4902345;29;20043;-80
2021/06/12 06:32:34;;;;;;;8.60;4.85;;;;;;;;;;4912940;29;20131;-78
2021/06/12 06:35:00;;;;;;;10.65;4.43;;;;;;;;;;4912735;29;20025;-78
2021/06/12 06:37:26;;;;;;;11.68;5.05;;;;;;;;;;4909817;29;20098;-78
2021/06/12 06:39:52;;;;;;;5.28;4.35;;;;;;;;;;4908079;29;20497;-77
2021/06/12 06:42:19;;;;;;;7.95;4.50;;;;;;;;;;4903689;29;20056;-80
2021/06/12 06:44:45;;;;;;;10.93;4.60;;;;;;;;;;4905709;29;20067;-68
2021/06/12 06:47:11;;;;;;;8.57;4.32;;;;;;;;;;4912293;29;20083;-82
2021/06/12 06:49:39;;;;;;;6.65;4.45;;;;;;;;;;4887798;29;20043;-82
2021/06/12 06:52:05;;;;;;;8.60;4.60;;;;;;;;;;4911073;29;20043;-71
2021/06/12 06:54:34;;;;;;;11.10;5.00;;;;;;;;;;4905614;29;20084;-80
2021/06/12 06:57:00;;;;;;;38.00;21.45;;;;;;;;;;4909856;29;20119;-63
2021/06/12 06:59:26;;;;;;;13.27;6.20;;;;;;;;;;4913003;29;20036;-79
2021/06/12 07:02:07;;;;;;;11.77;5.82;;;;;;;;;;4911576;29;20028;-79
2021/06/12 07:04:38;;;;;;;16.75;8.65;;;;;;;;;;4902198;29;20032;-80
2021/06/12 07:07:05;;;;;;;16.90;7.82;;;;;;;;;;4914296;29;20047;-69
2021/06/12 07:09:31;;;;;;;9.73;4.90;;;;;;;;;;4897352;29;20033;-77
2021/06/12 07:11:59;;;;;;;9.38;5.40;;;;;;;;;;4912109;29;20035;-76
2021/06/12 07:14:25;;;;;;;9.77;6.20;;;;;;;;;;4898827;29;20111;-77
2021/06/12 07:16:52;;;;;;;17.60;6.20;;;;;;;;;;4919924;29;20052;-78
2021/06/12 07:19:20;;;;;;;12.50;6.10;;;;;;;;;;4920017;29;20028;-75
2021/06/12 07:21:46;;;;;;;12.18;5.60;;;;;;;;;;4901495;29;20024;-61
2021/06/12 07:24:12;;;;;;;14.27;5.45;;;;;;;;;;4898879;29;20049;-78
2021/06/12 07:26:39;;;;;;;7.97;5.22;;;;;;;;;;4901676;29;20024;-78
2021/06/12 07:29:05;;;;;;;8.60;4.97;;;;;;;;;;4895368;29;20520;-65
2021/06/12 07:31:31;;;;;;;6.18;4.38;;;;;;;;;;4899444;29;20032;-70
2021/06/12 07:33:58;;;;;;;8.77;4.70;;;;;;;;;;4898433;29;20033;-61
2021/06/12 07:36:24;;;;;;;6.20;4.78;;;;;;;;;;4897591;29;20551;-65
2021/06/12 07:38:50;;;;;;;10.93;4.75;;;;;;;;;;4896259;29;20052;-77
2021/06/12 07:41:16;;;;;;;8.05;5.15;;;;;;;;;;4900838;29;20109;-76
2021/06/12 07:43:42;;;;;;;10.95;5.13;;;;;;;;;;4896237;29;20058;-62
2021/06/12 07:46:08;;;;;;;5.43;4.43;;;;;;;;;;4899277;29;20047;-62
2021/06/12 07:48:34;;;;;;;11.55;5.78;;;;;;;;;;4898455;29;20487;-69
2021/06/12 07:51:01;;;;;;;10.88;4.70;;;;;;;;;;4904936;29;20040;-72
2021/06/12 07:53:27;;;;;;;5.10;4.47;;;;;;;;;;4905809;29;20060;-68
2021/06/12 07:55:53;;;;;;;6.97;4.10;;;;;;;;;;4898469;29;20536;-77
2021/06/12 07:58:19;;;;;;;8.38;4.68;;;;;;;;;;4907651;29;20131;-61
2021/06/12 08:00:45;;;;;;;8.50;4.35;;;;;;;;;;4882295;29;20394;-78
2021/06/12 08:03:11;;;;;;;10.77;4.70;;;;;;;;;;4904852;29;20028;-67
2021/06/12 08:05:37;;;;;;;7.80;4.47;;;;;;;;;;4898615;29;20061;-78
2021/06/12 08:08:04;;;;;;;8.60;4.05;;;;;;;;;;4896203;29;20063;-77
2021/06/12 08:10:30;;;;;;;7.47;4.70;;;;;;;;;;4901313;29;20032;-61
2021/06/12 08:12:56;;;;;;;7.78;4.40;;;;;;;;;;4912340;29;20103;-76
2021/06/12 08:15:23;;;;;;;6.20;4.53;;;;;;;;;;4901212;29;20115;-63
2021/06/12 08:17:51;;;;;;;7.40;4.75;;;;;;;;;;4899670;29;20052;-77
2021/06/12 08:20:19;;;;;;;7.43;4.72;;;;;;;;;;4908668;29;20016;-71
2021/06/12 08:22:47;;;;;;;8.10;5.38;;;;;;;;;;4902093;29;20130;-75
2021/06/12 08:25:13;;;;;;;7.80;5.20;;;;;;;;;;4903542;29;20043;-61
2021/06/12 08:27:39;;;;;;;6.28;5.30;;;;;;;;;;4910646;29;20045;-76
2021/06/12 08:30:06;;;;;;;9.88;5.20;;;;;;;;;;4905881;29;20043;-65
2021/06/12 08:32:33;;;;;;;8.80;5.15;;;;;;;;;;4905422;29;20034;-72
2021/06/12 08:35:00;;;;;;;9.35;5.18;;;;;;;;;;4893662;29;20021;-80
2021/06/12 08:37:26;;;;;;;7.25;4.75;;;;;;;;;;4898674;29;20044;-69
2021/06/12 08:39:54;;;;;;;7.25;5.05;;;;;;;;;;4909177;29;20060;-79
2021/06/12 08:42:20;;;;;;;6.95;4.05;;;;;;;;;;4894434;29;20691;-64
2021/06/12 08:44:47;;;;;;;7.13;4.20;;;;;;;;;;4908085;29;20025;-76
2021/06/12 08:47:14;;;;;;;8.38;4.13;;;;;;;;;;4905250;29;20036;-72
2021/06/12 08:49:40;;;;;;;10.40;4.40;;;;;;;;;;4904576;29;20025;-72
2021/06/12 08:52:06;;;;;;;7.28;4.15;;;;;;;;;;4906599;29;20036;-64
2021/06/12 08:54:33;;;;;;;12.23;5.18;;;;;;;;;;4907106;29;20032;-76
2021/06/12 08:56:59;;;;;;;10.35;4.10;;;;;;;;;;4904107;29;20499;-69
2021/06/12 08:59:31;;;;;;;12.07;5.35;;;;;;;;;;4902484;29;20040;-69
2021/06/12 09:01:57;;;;;;;8.90;4.63;;;;;;;;;;4904652;29;20107;-77
2021/06/12 09:04:27;;;;;;;7.82;4.30;;;;;;;;;;4905984;29;20048;-74
2021/06/12 09:07:12;;;;;;;10.77;4.20;;;;;;;;;;4907987;29;20036;-74
2021/06/12 09:09:41;;;;;;;12.00;4.20;;;;;;;;;;4912587;29;20036;-78
2021/06/12 09:12:07;;;;;;;9.70;4.30;;;;;;;;;;4904435;29;20550;-78
2021/06/12 09:14:33;;;;;;;6.05;3.83;;;;;;;;;;4906336;29;20059;-79
2021/06/12 09:17:00;;;;;;;8.85;4.15;;;;;;;;;;4902684;29;20048;-75
2021/06/12 09:19:26;;;;;;;11.45;3.85;;;;;;;;;;4909954;29;20032;-78
2021/06/12 09:21:57;;;;;;;12.70;4.47;;;;;;;;;;4906056;29;20028;-77
2021/06/12 09:24:26;;;;;;;8.52;4.40;;;;;;;;;;4907144;29;20020;-70
2021/06/12 09:26:52;;;;;;;8.23;4.18;;;;;;;;;;4909075;29;20023;-77
2021/06/12 09:29:20;;;;;;;7.07;3.90;;;;;;;;;;4906657;29;20029;-78
2021/06/12 09:31:50;;;;;;;7.43;3.60;;;;;;;;;;4909417;29;20156;-73
2021/06/12 09:34:18;;;;;;;6.22;4.20;;;;;;;;;;4902947;29;20489;-76
2021/06/12 09:36:44;;;;;;;6.68;3.22;;;;;;;;;;4898717;29;20037;-79
2021/06/12 09:39:10;;;;;;;6.60;3.55;;;;;;;;;;4905201;29;20036;-79
2021/06/12 09:41:37;;;;;;;9.50;3.80;;;;;;;;;;4902954;29;20056;-73
2021/06/12 09:44:03;;;;;;;8.77;3.78;;;;;;;;;;4903436;29;20032;-82
2021/06/12 09:46:30;;;;;;;7.22;3.63;;;;;;;;;;4912011;29;20050;-87
2021/06/12 09:48:58;;;;;;;7.07;3.60;;;;;;;;;;4912969;29;20451;-79
2021/06/12 09:51:24;;;;;;;5.57;3.67;;;;;;;;;;4905127;29;20116;-80
2021/06/12 09:53:52;;;;;;;7.25;4.07;;;;;;;;;;4903766;29;20072;-80
2021/06/12 09:56:19;;;;;;;10.18;4.30;;;;;;;;;;4905183;29;20032;-75
2021/06/12 09:58:45;;;;;;;6.68;4.20;;;;;;;;;;4892668;29;20036;-81
2021/06/12 10:01:12;;;;;;;13.18;4.82;;;;;;;;;;4910434;29;20031;-81
2021/06/12 10:03:38;;;;;;;9.63;4.22;;;;;;;;;;4895526;29;20163;-86
2021/06/12 10:06:10;;;;;;;8.55;4.20;;;;;;;;;;4920422;29;20020;-85
2021/06/12 10:08:37;;;;;;;8.20;4.43;;;;;;;;;;4912300;29;20043;-86
2021/06/12 10:11:03;;;;;;;7.72;4.28;;;;;;;;;;4904499;29;20640;-76
2021/06/12 10:13:30;;;;;;;7.15;4.10;;;;;;;;;;4902715;29;20119;-67
2021/06/12 10:15:56;;;;;;;8.80;4.28;;;;;;;;;;4899823;29;20037;-72
2021/06/12 10:18:25;;;;;;;9.57;3.97;;;;;;;;;;4891110;29;20127;-83
2021/06/12 10:20:51;;;;;;;7.63;4.05;;;;;;;;;;4902024;29;20020;-73
2021/06/12 10:23:19;;;;;;;7.03;4.13;;;;;;;;;;4906282;29;20047;-75
2021/06/12 10:25:46;;;;;;;6.55;4.05;;;;;;;;;;4891043;29;20463;-76
2021/06/12 10:28:12;;;;;;;8.13;4.38;;;;;;;;;;4906915;29;20032;-75
2021/06/12 10:30:39;;;;;;;9.18;4.35;;;;;;;;;;4904144;29;20099;-73
2021/06/12 10:33:06;;;;;;;8.40;4.20;;;;;;;;;;4908503;29;20565;-71
2021/06/12 10:35:33;;;;;;;6.00;4.32;;;;;;;;;;4903952;29;20471;-80
2021/06/12 10:38:02;;;;;;;6.38;3.92;;;;;;;;;;4914152;29;20448;-80
2021/06/12 10:40:35;;;;;;;10.68;6.18;;;;;;;;;;4902577;29;20085;-76
2021/06/12 10:43:12;;;;;;;8.25;5.15;;;;;;;;;;4903226;29;20431;-77
2021/06/12 10:45:39;;;;;;;7.68;4.45;;;;;;;;;;4907177;29;20476;-83
2021/06/12 10:48:05;;;;;;;9.65;5.00;;;;;;;;;;4892692;29;20083;-84
2021/06/12 10:50:42;;;;;;;8.13;4.55;;;;;;;;;;4893058;29;20072;-86
2021/06/12 10:53:22;;;;;;;17.10;4.75;;;;;;;;;;4895089;29;20043;-80
2021/06/12 10:55:55;;;;;;;7.50;4.50;;;;;;;;;;4900087;29;20029;-77
2021/06/12 10:58:30;;;;;;;6.53;4.65;;;;;;;;;;4902559;29;20070;-72
2021/06/12 11:01:16;;;;;;;9.32;4.85;;;;;;;;;;4903926;29;20113;-87
2021/06/12 11:03:48;;;;;;;12.25;4.82;;;;;;;;;;4903342;29;20279;-79
2021/06/12 11:09:18;;;;;;;7.07;3.75;;;;;;;;;;4847405;29;20045;-72
2021/06/12 11:11:47;;;;;;;9.45;4.15;;;;;;;;;;4852423;29;20063;-85
2021/06/12 11:14:24;;;;;;;5.88;3.97;;;;;;;;;;4863705;29;20056;-81
2021/06/12 11:19:32;;;;;;;7.25;4.70;;;;;;;;;;4860609;29;20554;-86
2021/06/12 11:22:16;;;;;;;5.47;4.53;;;;;;;;;;4856368;29;20109;-79
2021/06/12 11:24:44;;;;;;;5.63;3.95;;;;;;;;;;4856954;29;20110;-76
2021/06/12 11:27:21;;;;;;;6.32;4.15;;;;;;;;;;4860942;29;20527;-87
2021/06/12 11:30:06;;;;;;;11.77;4.50;;;;;;;;;;4869525;29;20480;-83
2021/06/12 11:32:32;;;;;;;8.25;4.00;;;;;;;;;;4854106;29;20049;-73
2021/06/12 11:34:58;;;;;;;14.40;5.60;;;;;;;;;;4855882;29;20029;-73
2021/06/12 11:37:27;;;;;;;8.27;4.82;;;;;;;;;;4853772;29;20114;-81
2021/06/12 11:39:55;;;;;;;8.80;4.07;;;;;;;;;;4858938;29;20022;-76
2021/06/12 11:42:21;;;;;;;7.28;4.13;;;;;;;;;;4862223;29;20117;-72
2021/06/12 11:44:48;;;;;;;5.53;4.10;;;;;;;;;;4881405;29;20040;-71
2021/06/12 11:47:25;;;;;;;7.80;4.68;;;;;;;;;;4908696;29;20025;-79
2021/06/12 11:49:51;;;;;;;8.77;4.07;;;;;;;;;;4903033;29;20031;-72
2021/06/12 11:52:17;;;;;;;6.18;3.80;;;;;;;;;;4903766;29;20468;-72
2021/06/12 11:54:43;;;;;;;7.10;4.00;;;;;;;;;;4894533;29;20061;-70
2021/06/12 11:57:15;;;;;;;22.98;4.60;;;;;;;;;;4914482;29;20036;-73
2021/06/12 11:59:43;;;;;;;5.47;3.88;;;;;;;;;;4893762;29;20044;-68
2021/06/12 12:02:09;;;;;;;7.35;3.75;;;;;;;;;;4897345;29;20031;-68
2021/06/12 12:04:40;;;;;;;7.03;3.17;;;;;;;;;;4898586;29;20042;-73
2021/06/12 12:07:07;;;;;;;12.23;4.65;;;;;;;;;;4889028;29;20502;-68
2021/06/12 12:09:38;;;;;;;6.85;3.97;;;;;;;;;;4895048;29;20105;-68
2021/06/12 12:12:05;;;;;;;5.47;3.58;;;;;;;;;;4898197;29;20028;-69
2021/06/12 12:14:36;;;;;;;4.88;3.78;;;;;;;;;;4909262;29;20173;-69
2021/06/12 12:17:03;;;;;;;8.25;3.80;;;;;;;;;;4910557;29;20059;-71
2021/06/12 12:19:30;;;;;;;4.80;3.22;;;;;;;;;;4907526;29;20032;-69
2021/06/12 12:21:57;;;;;;;9.77;3.42;;;;;;;;;;4908596;29;20039;-72
2021/06/12 12:24:23;;;;;;;12.32;3.35;;;;;;;;;;4912010;29;20390;-75
2021/06/12 12:26:52;;;;;;;6.55;3.28;;;;;;;;;;4910235;29;20387;-71
2021/06/12 12:29:22;;;;;;;7.93;3.58;;;;;;;;;;4907890;29;20032;-70
2021/06/12 12:31:49;;;;;;;6.10;3.20;;;;;;;;;;4915355;29;20020;-66
2021/06/12 12:34:16;;;;;;;5.80;3.28;;;;;;;;;;4909162;29;20043;-68
2021/06/12 12:36:46;;;;;;;4.78;3.22;;;;;;;;;;4913765;29;20042;-67
2021/06/12 12:39:16;;;;;;;9.73;3.65;;;;;;;;;;4909868;29;20031;-75
2021/06/12 12:42:12;;;;;;;7.50;3.53;;;;;;;;;;4912336;29;20050;-72
2021/06/12 12:44:43;;;;;;;8.05;3.83;;;;;;;;;;4896902;29;20096;-68
2021/06/12 12:47:09;;;;;;;7.90;3.75;;;;;;;;;;4907765;29;20405;-67
2021/06/12 12:49:39;;;;;;;7.97;3.53;;;;;;;;;;4913995;29;20097;-66
2021/06/12 12:52:05;;;;;;;4.30;3.13;;;;;;;;;;4911086;29;20025;-71
2021/06/12 12:54:36;;;;;;;8.98;3.00;;;;;;;;;;4905797;29;20443;-70
2021/06/12 12:57:08;;;;;;;4.35;3.10;;;;;;;;;;4904625;29;20044;-71
2021/06/12 12:59:47;;;;;;;4.88;3.03;;;;;;;;;;4906752;29;20105;-73
2021/06/12 13:02:17;;;;;;;5.93;3.33;;;;;;;;;;4889781;29;20119;-70
2021/06/12 13:04:46;;;;;;;5.65;3.50;;;;;;;;;;4903245;29;20075;-78
2021/06/12 13:07:22;;;;;;;5.90;3.28;;;;;;;;;;4913615;29;20031;-72
2021/06/12 13:10:08;;;;;;;3.45;3.00;;;;;;;;;;4914280;29;20024;-73
2021/06/12 13:12:35;;;;;;;5.50;3.28;;;;;;;;;;4902016;29;20029;-77
2021/06/12 13:15:03;;;;;;;4.30;3.33;;;;;;;;;;4909569;29;20028;-83
2021/06/12 13:17:30;;;;;;;15.55;3.50;;;;;;;;;;4905260;29;20164;-82
2021/06/12 13:20:03;;;;;;;8.10;3.25;;;;;;;;;;4904123;29;20035;-80
2021/06/12 13:22:36;;;;;;;6.50;3.13;;;;;;;;;;4909201;29;20114;-89
2021/06/12 13:25:15;;;;;;;6.80;3.10;;;;;;;;;;4896321;29;20024;-80
2021/06/12 13:27:41;;;;;;;3.83;3.28;;;;;;;;;;4908503;29;20108;-86
2021/06/12 13:30:28;;;;;;;5.60;3.40;;;;;;;;;;4890567;29;20114;-85
2021/06/12 13:32:58;;;;;;;6.22;3.47;;;;;;;;;;4906552;29;20032;-84
2021/06/12 13:35:28;;;;;;;6.47;3.03;;;;;;;;;;4905183;29;20090;-63
2021/06/12 13:38:09;;;;;;;9.63;3.40;;;;;;;;;;4887991;29;20478;-62
2021/06/12 13:40:36;;;;;;;7.82;3.60;;;;;;;;;;4906639;29;20029;-74
2021/06/12 13:43:16;;;;;;;17.73;3.50;;;;;;;;;;4902947;29;20025;-71
2021/06/12 13:45:42;;;;;;;6.45;3.30;;;;;;;;;;4909450;29;20134;-63
2021/06/12 13:48:08;;;;;;;8.48;3.42;;;;;;;;;;4912448;29;20446;-64
2021/06/12 13:50:35;;;;;;;6.97;3.70;;;;;;;;;;4907884;29;20801;-66
2021/06/12 13:53:01;;;;;;;7.72;3.50;;;;;;;;;;4905612;29;20044;-70
2021/06/12 13:55:31;;;;;;;7.43;3.40;;;;;;;;;;4906990;29;20024;-67
2021/06/12 13:57:58;;;;;;;8.98;3.35;;;;;;;;;;4902412;29;20035;-82
2021/06/12 14:00:24;;;;;;;53.25;6.28;;;;;;;;;;4910554;29;20027;-63
2021/06/12 14:02:50;;;;;;;9.80;3.38;;;;;;;;;;4908318;29;20509;-71
2021/06/12 14:05:16;;;;;;;5.32;3.20;;;;;;;;;;4894884;29;20387;-78
2021/06/12 14:07:42;;;;;;;5.35;2.70;;;;;;;;;;4905717;29;20062;-68
2021/06/12 14:10:09;;;;;;;8.07;3.10;;;;;;;;;;4914746;29;20032;-65
2021/06/12 14:12:35;;;;;;;6.65;3.03;;;;;;;;;;4904561;29;20073;-68
2021/06/12 14:15:01;;;;;;;9.18;3.45;;;;;;;;;;4914422;29;20052;-65
2021/06/12 14:17:28;;;;;;;10.65;4.38;;;;;;;;;;4895905;29;20506;-73
2021/06/12 14:19:54;;;;;;;7.63;3.38;;;;;;;;;;4906440;29;20039;-82
2021/06/12 14:22:20;;;;;;;7.60;3.42;;;;;;;;;;4905475;29;20024;-73
2021/06/12 14:24:46;;;;;;;9.85;3.42;;;;;;;;;;4908320;29;20047;-65
2021/06/12 14:27:12;;;;;;;26.45;4.53;;;;;;;;;;4891438;29;20048;-80
2021/06/12 14:29:39;;;;;;;5.53;3.25;;;;;;;;;;4902886;29;20080;-73
2021/06/12 14:32:08;;;;;;;7.28;3.15;;;;;;;;;;4898478;29;20067;-81
2021/06/12 14:34:35;;;;;;;7.78;3.33;;;;;;;;;;4905312;29;20176;-84
2021/06/12 14:37:01;;;;;;;7.75;3.13;;;;;;;;;;4904544;29;20458;-77
2021/06/12 14:39:27;;;;;;;4.22;2.80;;;;;;;;;;4901882;29;20490;-74
2021/06/12 14:41:56;;;;;;;13.00;4.18;;;;;;;;;;4884471;29;20375;-70
2021/06/12 14:46:27;;;;;;;4.00;3.00;;;;;;;;;;5117324;27;20208;-72
2021/06/12 14:48:53;;;;;;;4.20;3.10;;;;;;;;;;5091834;28;20020;-76
2021/06/12 14:51:19;;;;;;;5.60;3.00;;;;;;;;;;5088947;28;20032;-80
2021/06/12 14:53:45;;;;;;;8.48;3.13;;;;;;;;;;5088162;28;20025;-68